Point Sur, California
Current Conditions -  °F | °C
As of 7:54 PM on Friday 31 Oct 2014 (Local Time) from KMRY Reporting Station
Overcast Overcast  
Wind Chill: 54°   Ceiling: 7000
Heat Index: 54°   Visibility: 10mi
Dew Point: 52°   Wind: 0mph
Humidity: 93%   Direction: NA
Pressure: 29.75"   Gusts: NA
Location:  36.5816°N, 121.843°W
Report Text: KMRY 010254Z 00000KT 10SM BKN070 OVC095 12/11 A2975 RMK AO2 RAE51 SLP086 P0007 60037 T01220111 58018
Loading
Personal Weather Stations






























Interactive Weather Map
Tropical Storm Tracking
New forecast layout! Learn more

10-Day Weather Forecast

Advertisements
Track Severe Weather on mobile